Time;durP1;ratioP1;P1;durP2;ratioP2;P2;SDS_P1;SDS_P2;PMS_P1;PMS_P2;Temp;Humidity;BMP_temperature;BMP_pressure;BME280_temperature;BME280_humidity;BME280_pressure;Samples;Min_cycle;Max_cycle;Signal;HPM_P1;HPM_P2
2023/08/09 00:00:06;;;;;;;3.13;1.55;;;;;;;;;;5034588;28;20048;-79
2023/08/09 00:02:33;;;;;;;2.65;1.40;;;;;;;;;;5034799;28;20052;-79
2023/08/09 00:05:00;;;;;;;4.38;1.63;;;;;;;;;;5034197;28;20129;-78
2023/08/09 00:07:26;;;;;;;4.97;1.92;;;;;;;;;;5012805;28;20049;-79
2023/08/09 00:09:53;;;;;;;4.03;1.80;;;;;;;;;;5023965;28;20048;-79
2023/08/09 00:12:19;;;;;;;3.47;1.85;;;;;;;;;;5019303;28;20061;-79
2023/08/09 00:14:46;;;;;;;3.10;1.40;;;;;;;;;;5034350;28;20049;-79
2023/08/09 00:17:14;;;;;;;3.55;1.80;;;;;;;;;;5034466;28;20136;-78
2023/08/09 00:19:40;;;;;;;3.60;1.70;;;;;;;;;;5033289;28;20071;-78
2023/08/09 00:22:08;;;;;;;2.67;1.50;;;;;;;;;;5032956;28;20506;-79
2023/08/09 00:24:34;;;;;;;3.72;1.40;;;;;;;;;;5033339;28;20431;-78
2023/08/09 00:27:01;;;;;;;3.15;1.70;;;;;;;;;;5032870;28;20049;-78
2023/08/09 00:29:28;;;;;;;2.80;1.60;;;;;;;;;;5033367;28;20104;-78
2023/08/09 00:31:55;;;;;;;3.08;1.48;;;;;;;;;;5033429;28;20050;-77
2023/08/09 00:34:23;;;;;;;2.53;1.38;;;;;;;;;;5034507;28;20128;-78
2023/08/09 00:36:51;;;;;;;4.28;1.52;;;;;;;;;;5035366;28;20073;-78
2023/08/09 00:39:17;;;;;;;3.67;1.65;;;;;;;;;;5037026;28;20419;-79
2023/08/09 00:41:44;;;;;;;3.35;1.50;;;;;;;;;;5040029;28;20046;-78
2023/08/09 00:44:10;;;;;;;3.50;1.70;;;;;;;;;;5039225;28;20090;-78
2023/08/09 00:46:38;;;;;;;2.83;1.67;;;;;;;;;;5037765;28;20045;-78
2023/08/09 00:49:05;;;;;;;2.75;1.55;;;;;;;;;;5037767;28;20045;-78
2023/08/09 00:51:33;;;;;;;3.35;1.65;;;;;;;;;;5037889;28;20057;-78
2023/08/09 00:54:00;;;;;;;3.90;1.80;;;;;;;;;;5039823;28;20054;-79
2023/08/09 00:56:27;;;;;;;3.50;1.50;;;;;;;;;;5038635;28;20077;-79
2023/08/09 00:58:53;;;;;;;3.30;1.70;;;;;;;;;;5037812;28;20057;-78
2023/08/09 01:01:20;;;;;;;4.18;1.75;;;;;;;;;;5037768;28;20045;-78
2023/08/09 01:03:47;;;;;;;3.30;1.98;;;;;;;;;;5037731;28;20057;-80
2023/08/09 01:06:21;;;;;;;3.80;1.70;;;;;;;;;;5039507;28;20042;-77
2023/08/09 01:08:53;;;;;;;3.60;1.77;;;;;;;;;;5037232;28;20045;-79
2023/08/09 01:11:27;;;;;;;3.55;1.58;;;;;;;;;;5037189;28;20045;-76
2023/08/09 01:13:55;;;;;;;2.85;1.50;;;;;;;;;;5038356;28;20584;-77
2023/08/09 01:16:24;;;;;;;3.67;1.70;;;;;;;;;;5038202;28;20128;-79
2023/08/09 01:18:52;;;;;;;2.67;1.50;;;;;;;;;;5038088;28;20132;-79
2023/08/09 01:21:20;;;;;;;2.85;1.40;;;;;;;;;;5035848;28;20099;-78
2023/08/09 01:23:49;;;;;;;5.15;1.70;;;;;;;;;;5025045;28;20064;-79
2023/08/09 01:26:16;;;;;;;3.17;1.92;;;;;;;;;;5028360;28;20053;-79
2023/08/09 01:28:43;;;;;;;3.00;1.42;;;;;;;;;;5028801;28;20045;-79
2023/08/09 01:31:10;;;;;;;4.28;1.90;;;;;;;;;;5026933;28;20067;-78
2023/08/09 01:33:37;;;;;;;3.67;1.50;;;;;;;;;;5031446;28;20473;-79
2023/08/09 01:36:09;;;;;;;3.45;1.50;;;;;;;;;;5036944;28;20049;-78
2023/08/09 01:38:38;;;;;;;3.45;2.00;;;;;;;;;;5014273;28;20100;-79
2023/08/09 01:41:08;;;;;;;3.95;1.80;;;;;;;;;;5026839;28;20042;-79
2023/08/09 01:43:36;;;;;;;2.67;1.50;;;;;;;;;;5030044;28;20050;-78
2023/08/09 01:46:03;;;;;;;2.78;1.50;;;;;;;;;;5029181;28;20045;-78
2023/08/09 01:48:29;;;;;;;4.13;1.75;;;;;;;;;;5030702;28;20109;-79
2023/08/09 01:50:58;;;;;;;3.67;1.80;;;;;;;;;;5037775;28;20049;-78
2023/08/09 01:53:24;;;;;;;3.60;1.45;;;;;;;;;;5038119;28;20052;-79
2023/08/09 01:55:52;;;;;;;4.03;1.77;;;;;;;;;;5038295;28;20084;-78
2023/08/09 01:58:20;;;;;;;3.28;1.85;;;;;;;;;;5029881;28;20046;-79
2023/08/09 02:00:46;;;;;;;3.20;1.65;;;;;;;;;;5025607;28;20054;-79
2023/08/09 02:03:13;;;;;;;2.85;1.65;;;;;;;;;;5026651;28;20522;-79
2023/08/09 02:05:39;;;;;;;3.05;1.52;;;;;;;;;;5030955;28;20084;-78
2023/08/09 02:08:06;;;;;;;2.53;1.50;;;;;;;;;;5037477;28;20057;-79
2023/08/09 02:10:33;;;;;;;3.50;1.63;;;;;;;;;;5037170;28;20105;-79
2023/08/09 02:12:59;;;;;;;3.35;1.42;;;;;;;;;;5036410;28;20041;-77
2023/08/09 02:15:27;;;;;;;3.90;1.80;;;;;;;;;;5037263;28;20045;-79
2023/08/09 02:17:57;;;;;;;3.67;1.58;;;;;;;;;;5036477;28;20049;-78
2023/08/09 02:20:25;;;;;;;4.20;1.70;;;;;;;;;;5037646;28;20042;-78
2023/08/09 02:22:51;;;;;;;4.32;1.83;;;;;;;;;;5037431;28;20049;-78
2023/08/09 02:25:18;;;;;;;3.90;1.75;;;;;;;;;;5038174;28;20045;-77
2023/08/09 02:27:46;;;;;;;2.88;1.73;;;;;;;;;;5039038;28;20056;-78
2023/08/09 02:30:13;;;;;;;3.80;1.88;;;;;;;;;;5036787;28;20046;-78
2023/08/09 02:32:41;;;;;;;3.78;1.90;;;;;;;;;;5036859;28;20049;-79
2023/08/09 02:35:08;;;;;;;3.47;2.15;;;;;;;;;;5037516;28;20064;-78
2023/08/09 02:37:35;;;;;;;3.55;2.08;;;;;;;;;;5036583;28;20060;-78
2023/08/09 02:40:02;;;;;;;4.60;2.20;;;;;;;;;;5035473;28;20401;-78
2023/08/09 02:42:28;;;;;;;3.85;1.83;;;;;;;;;;5035220;28;20054;-77
2023/08/09 02:44:55;;;;;;;3.58;1.70;;;;;;;;;;5035724;28;20080;-78
2023/08/09 02:47:22;;;;;;;3.55;1.90;;;;;;;;;;5014617;28;20069;-79
2023/08/09 02:49:50;;;;;;;3.63;1.95;;;;;;;;;;5027751;28;20041;-78
2023/08/09 02:52:16;;;;;;;3.40;1.88;;;;;;;;;;5030072;28;20050;-79
2023/08/09 02:54:43;;;;;;;2.92;2.05;;;;;;;;;;5039872;28;20064;-78
2023/08/09 02:57:10;;;;;;;3.95;1.80;;;;;;;;;;5039385;28;20523;-78
2023/08/09 02:59:46;;;;;;;3.10;1.80;;;;;;;;;;5039994;28;20041;-79
2023/08/09 03:02:13;;;;;;;3.40;1.98;;;;;;;;;;5036690;28;20045;-78
2023/08/09 03:04:39;;;;;;;3.05;1.65;;;;;;;;;;5037787;28;20049;-79
2023/08/09 03:07:07;;;;;;;2.80;1.70;;;;;;;;;;5038896;28;20084;-79
2023/08/09 03:09:34;;;;;;;5.43;2.13;;;;;;;;;;5037194;28;20077;-77
2023/08/09 03:12:01;;;;;;;3.58;1.95;;;;;;;;;;5035056;28;20052;-79
2023/08/09 03:14:28;;;;;;;3.47;2.30;;;;;;;;;;5034847;28;20470;-77
2023/08/09 03:16:55;;;;;;;3.38;1.88;;;;;;;;;;5035211;28;20055;-78
2023/08/09 03:19:22;;;;;;;3.85;2.47;;;;;;;;;;5034981;28;20049;-77
2023/08/09 03:21:49;;;;;;;3.40;2.00;;;;;;;;;;5034763;28;20531;-78
2023/08/09 03:24:16;;;;;;;3.72;2.00;;;;;;;;;;5034643;28;20488;-77
2023/08/09 03:26:43;;;;;;;5.53;1.95;;;;;;;;;;5034698;28;20049;-76
2023/08/09 03:29:10;;;;;;;4.68;1.88;;;;;;;;;;5034890;28;20049;-78
2023/08/09 03:31:36;;;;;;;3.55;1.63;;;;;;;;;;5034788;28;20065;-78
2023/08/09 03:34:03;;;;;;;4.13;2.00;;;;;;;;;;5034906;28;20056;-77
2023/08/09 03:36:29;;;;;;;3.08;2.03;;;;;;;;;;5035478;28;20041;-78
2023/08/09 03:38:56;;;;;;;3.33;2.00;;;;;;;;;;5035224;28;20073;-77
2023/08/09 03:41:25;;;;;;;4.00;2.00;;;;;;;;;;5035284;28;20056;-77
2023/08/09 03:43:51;;;;;;;3.92;2.00;;;;;;;;;;5035096;28;20058;-78
2023/08/09 03:46:18;;;;;;;4.63;2.08;;;;;;;;;;5035522;28;20060;-79
2023/08/09 03:48:44;;;;;;;3.78;2.33;;;;;;;;;;5035210;28;20046;-79
2023/08/09 03:51:11;;;;;;;3.90;2.13;;;;;;;;;;5035917;28;20041;-78
2023/08/09 03:53:37;;;;;;;3.75;2.00;;;;;;;;;;5033902;28;20522;-79
2023/08/09 03:56:04;;;;;;;5.03;2.00;;;;;;;;;;5034712;28;20053;-79
2023/08/09 03:58:32;;;;;;;3.72;2.10;;;;;;;;;;5034024;28;20052;-79
2023/08/09 04:00:59;;;;;;;3.03;1.70;;;;;;;;;;5034111;28;20045;-78
2023/08/09 04:03:25;;;;;;;4.22;1.83;;;;;;;;;;5034476;28;20049;-77
2023/08/09 04:05:52;;;;;;;3.63;1.52;;;;;;;;;;5034788;28;20128;-78
2023/08/09 04:08:21;;;;;;;4.50;2.25;;;;;;;;;;5034895;28;20071;-78
2023/08/09 04:10:47;;;;;;;2.85;1.60;;;;;;;;;;5034438;28;20136;-77
2023/08/09 04:13:14;;;;;;;3.55;1.70;;;;;;;;;;5033544;28;20045;-78
2023/08/09 04:15:42;;;;;;;3.70;1.95;;;;;;;;;;5040281;28;20047;-79
2023/08/09 04:18:09;;;;;;;3.78;1.95;;;;;;;;;;5041082;28;20042;-79
2023/08/09 04:20:36;;;;;;;4.30;1.75;;;;;;;;;;5041263;28;20103;-78
2023/08/09 04:23:03;;;;;;;3.70;1.85;;;;;;;;;;5040959;28;20132;-77
2023/08/09 04:25:30;;;;;;;3.22;1.60;;;;;;;;;;5041067;28;20401;-78
2023/08/09 04:27:56;;;;;;;3.10;1.58;;;;;;;;;;5040325;28;20102;-78
2023/08/09 04:30:23;;;;;;;4.25;1.80;;;;;;;;;;5043863;28;20045;-78
2023/08/09 04:32:52;;;;;;;2.70;1.60;;;;;;;;;;5043604;28;20053;-77
2023/08/09 04:35:18;;;;;;;3.58;1.95;;;;;;;;;;5044319;28;20132;-77
2023/08/09 04:37:45;;;;;;;3.95;2.20;;;;;;;;;;5043392;28;20463;-79
2023/08/09 04:40:12;;;;;;;5.50;2.35;;;;;;;;;;5042808;28;20080;-77
2023/08/09 04:42:40;;;;;;;4.55;2.53;;;;;;;;;;5041687;28;20060;-78
2023/08/09 04:45:09;;;;;;;4.72;2.45;;;;;;;;;;5044586;28;20057;-78
2023/08/09 04:47:36;;;;;;;4.55;2.80;;;;;;;;;;5044240;28;20074;-78
2023/08/09 04:50:04;;;;;;;4.43;2.47;;;;;;;;;;5044046;28;20068;-79
2023/08/09 04:52:31;;;;;;;4.28;2.47;;;;;;;;;;5044088;28;20128;-79
2023/08/09 04:54:58;;;;;;;5.82;2.58;;;;;;;;;;5041920;28;20048;-78
2023/08/09 04:57:24;;;;;;;4.57;2.35;;;;;;;;;;5041209;28;20110;-78
2023/08/09 04:59:51;;;;;;;5.45;2.58;;;;;;;;;;5040302;28;20124;-77
2023/08/09 05:02:17;;;;;;;3.63;2.13;;;;;;;;;;5039340;28;20045;-77
2023/08/09 05:04:44;;;;;;;3.35;1.90;;;;;;;;;;5040728;28;20053;-78
2023/08/09 05:07:12;;;;;;;3.78;1.80;;;;;;;;;;5040702;28;20059;-78
2023/08/09 05:09:38;;;;;;;2.75;1.60;;;;;;;;;;5042173;28;20519;-79
2023/08/09 05:12:06;;;;;;;4.93;2.13;;;;;;;;;;5042076;22;20046;-77
2023/08/09 05:14:33;;;;;;;3.90;2.00;;;;;;;;;;5017488;28;20561;-77
2023/08/09 05:16:59;;;;;;;3.83;1.83;;;;;;;;;;5017788;28;20052;-77
2023/08/09 05:19:26;;;;;;;3.65;1.80;;;;;;;;;;5018112;28;20061;-77
2023/08/09 05:21:53;;;;;;;3.05;1.58;;;;;;;;;;5017997;28;20069;-77
2023/08/09 05:24:20;;;;;;;4.68;2.58;;;;;;;;;;5018024;28;20550;-77
2023/08/09 05:26:47;;;;;;;4.35;2.10;;;;;;;;;;5015128;28;20042;-76
2023/08/09 05:29:14;;;;;;;3.42;1.95;;;;;;;;;;5014984;28;20067;-76
2023/08/09 05:31:39;;;;;;;4.30;1.90;;;;;;;;;;5014601;28;20497;-77
2023/08/09 05:34:06;;;;;;;4.90;2.00;;;;;;;;;;5015373;28;20052;-77
2023/08/09 05:36:32;;;;;;;4.10;2.03;;;;;;;;;;5015136;28;20060;-77
2023/08/09 05:38:59;;;;;;;4.72;1.70;;;;;;;;;;5017686;28;20045;-77
2023/08/09 05:41:27;;;;;;;3.90;1.50;;;;;;;;;;5015945;28;20416;-77
2023/08/09 05:43:54;;;;;;;4.32;1.98;;;;;;;;;;5019274;28;20045;-76
2023/08/09 05:46:20;;;;;;;5.30;1.73;;;;;;;;;;5027760;28;20060;-77
2023/08/09 05:48:47;;;;;;;3.53;2.03;;;;;;;;;;5031427;28;20056;-76
2023/08/09 05:51:13;;;;;;;4.43;1.85;;;;;;;;;;5004090;28;20056;-76
2023/08/09 05:53:40;;;;;;;4.68;2.72;;;;;;;;;;5015843;28;20053;-78
2023/08/09 05:56:06;;;;;;;4.13;1.98;;;;;;;;;;5019911;28;20042;-78
2023/08/09 05:58:34;;;;;;;3.17;2.17;;;;;;;;;;5029614;28;20037;-77
2023/08/09 06:01:02;;;;;;;4.97;2.10;;;;;;;;;;5029163;28;20046;-76
2023/08/09 06:03:29;;;;;;;3.58;2.03;;;;;;;;;;5002356;28;20129;-77
2023/08/09 06:05:57;;;;;;;6.03;2.13;;;;;;;;;;5000123;28;20416;-77
2023/08/09 06:08:24;;;;;;;4.07;1.90;;;;;;;;;;5013296;28;20046;-77
2023/08/09 06:10:50;;;;;;;3.83;1.98;;;;;;;;;;5012198;28;20047;-76
2023/08/09 06:13:17;;;;;;;4.32;1.92;;;;;;;;;;5007340;28;20048;-77
2023/08/09 06:15:45;;;;;;;3.72;2.10;;;;;;;;;;5011900;28;20049;-77
2023/08/09 06:18:12;;;;;;;4.30;2.10;;;;;;;;;;5011374;28;20052;-77
2023/08/09 06:20:38;;;;;;;4.40;2.15;;;;;;;;;;5017356;28;20045;-76
2023/08/09 06:23:05;;;;;;;2.92;1.60;;;;;;;;;;5017551;28;20133;-76
2023/08/09 06:25:32;;;;;;;5.57;2.03;;;;;;;;;;5013703;28;20049;-77
2023/08/09 06:27:59;;;;;;;3.60;1.90;;;;;;;;;;5002698;28;20056;-77
2023/08/09 06:30:25;;;;;;;4.80;2.13;;;;;;;;;;5013965;28;20056;-77
2023/08/09 06:32:53;;;;;;;3.55;2.00;;;;;;;;;;5019356;28;20041;-77
2023/08/09 06:35:20;;;;;;;5.15;1.92;;;;;;;;;;5013240;28;20100;-77
2023/08/09 06:37:48;;;;;;;4.22;2.10;;;;;;;;;;5013422;28;20038;-77
2023/08/09 06:40:16;;;;;;;4.68;2.25;;;;;;;;;;5012686;28;20500;-77
2023/08/09 06:42:42;;;;;;;4.78;2.17;;;;;;;;;;5004381;28;20048;-77
2023/08/09 06:45:10;;;;;;;4.65;2.10;;;;;;;;;;5001150;28;20057;-77
2023/08/09 06:47:37;;;;;;;3.88;1.88;;;;;;;;;;5003979;28;20062;-76
2023/08/09 06:50:07;;;;;;;5.82;2.20;;;;;;;;;;5008669;28;20053;-77
2023/08/09 06:52:36;;;;;;;4.82;1.90;;;;;;;;;;5009030;28;20576;-77
2023/08/09 06:55:03;;;;;;;4.60;2.42;;;;;;;;;;5001706;28;20141;-77
2023/08/09 06:57:29;;;;;;;4.82;1.80;;;;;;;;;;5018315;28;20424;-77
2023/08/09 06:59:56;;;;;;;4.60;1.77;;;;;;;;;;5017675;28;20050;-76
2023/08/09 07:02:22;;;;;;;4.55;2.10;;;;;;;;;;5010696;28;20552;-77
2023/08/09 07:04:53;;;;;;;3.70;2.13;;;;;;;;;;5009988;28;20077;-77
2023/08/09 07:07:22;;;;;;;4.70;2.20;;;;;;;;;;5007344;28;20058;-78
2023/08/09 07:09:49;;;;;;;4.85;2.20;;;;;;;;;;5030416;28;20188;-76
2023/08/09 07:12:15;;;;;;;4.10;1.90;;;;;;;;;;5021022;28;20037;-76
2023/08/09 07:14:42;;;;;;;3.50;1.83;;;;;;;;;;5028306;28;20049;-76
2023/08/09 07:17:08;;;;;;;4.55;2.22;;;;;;;;;;5003209;28;20046;-77
2023/08/09 07:19:35;;;;;;;5.28;2.20;;;;;;;;;;5010542;28;20041;-77
2023/08/09 07:22:02;;;;;;;4.20;2.10;;;;;;;;;;5003546;28;20049;-76
2023/08/09 07:24:30;;;;;;;4.63;2.00;;;;;;;;;;5015737;28;20448;-77
2023/08/09 07:26:56;;;;;;;5.10;2.40;;;;;;;;;;5016905;28;20219;-76
2023/08/09 07:29:23;;;;;;;3.88;2.15;;;;;;;;;;5002743;28;20045;-77
2023/08/09 07:31:49;;;;;;;6.38;2.60;;;;;;;;;;5001158;28;20050;-76
2023/08/09 07:34:16;;;;;;;5.22;2.17;;;;;;;;;;4999502;28;20038;-78
2023/08/09 07:36:43;;;;;;;5.80;2.08;;;;;;;;;;5012809;28;20042;-76
2023/08/09 07:39:10;;;;;;;4.00;2.00;;;;;;;;;;5016291;28;20085;-76
2023/08/09 07:41:38;;;;;;;3.80;2.00;;;;;;;;;;5016181;28;20125;-76
2023/08/09 07:44:05;;;;;;;4.90;2.55;;;;;;;;;;5014821;28;20046;-76
2023/08/09 07:46:32;;;;;;;4.55;2.25;;;;;;;;;;5010632;28;20056;-77
2023/08/09 07:48:58;;;;;;;3.53;2.13;;;;;;;;;;5006192;28;20044;-77
2023/08/09 07:51:26;;;;;;;5.05;2.17;;;;;;;;;;5014890;28;20131;-76
2023/08/09 07:53:53;;;;;;;4.80;2.35;;;;;;;;;;5009543;28;20081;-76
2023/08/09 07:56:22;;;;;;;5.05;1.98;;;;;;;;;;5009722;28;20103;-77
2023/08/09 07:58:50;;;;;;;5.53;2.38;;;;;;;;;;5001958;28;20128;-77
2023/08/09 08:01:17;;;;;;;3.97;2.00;;;;;;;;;;5003228;28;20046;-77
2023/08/09 08:03:43;;;;;;;5.43;2.13;;;;;;;;;;5008520;28;20512;-77
2023/08/09 08:06:11;;;;;;;5.43;2.35;;;;;;;;;;5008428;28;20547;-76
2023/08/09 08:08:37;;;;;;;5.03;2.33;;;;;;;;;;5010068;28;20037;-76
2023/08/09 08:11:04;;;;;;;4.20;1.88;;;;;;;;;;5009049;28;20050;-76
2023/08/09 08:13:31;;;;;;;4.05;2.00;;;;;;;;;;5016954;28;20103;-76
2023/08/09 08:15:59;;;;;;;4.47;2.55;;;;;;;;;;5010191;28;20045;-77
2023/08/09 08:18:26;;;;;;;3.42;1.75;;;;;;;;;;5009098;28;20050;-76
2023/08/09 08:20:53;;;;;;;6.47;2.33;;;;;;;;;;5008898;28;20553;-77
2023/08/09 08:23:20;;;;;;;3.58;1.95;;;;;;;;;;5010960;28;20042;-75
2023/08/09 08:25:46;;;;;;;4.82;2.25;;;;;;;;;;5014491;28;20041;-77
2023/08/09 08:28:13;;;;;;;4.35;1.98;;;;;;;;;;5017527;28;20049;-76
2023/08/09 08:30:39;;;;;;;5.03;2.38;;;;;;;;;;5013836;28;20049;-75
2023/08/09 08:33:08;;;;;;;4.38;2.25;;;;;;;;;;5014339;28;20043;-75
2023/08/09 08:35:36;;;;;;;3.63;1.92;;;;;;;;;;5016481;28;20093;-75
2023/08/09 08:38:03;;;;;;;4.95;2.38;;;;;;;;;;5020019;28;20046;-75
2023/08/09 08:40:31;;;;;;;3.78;2.00;;;;;;;;;;5013556;28;20508;-76
2023/08/09 08:43:01;;;;;;;4.57;2.40;;;;;;;;;;5011690;28;20089;-78
2023/08/09 08:45:31;;;;;;;3.63;2.10;;;;;;;;;;5016745;28;20050;-77
2023/08/09 08:47:58;;;;;;;5.25;2.35;;;;;;;;;;5020780;28;20121;-77
2023/08/09 08:50:27;;;;;;;4.32;2.38;;;;;;;;;;5013612;28;20049;-77
2023/08/09 08:52:55;;;;;;;5.45;2.42;;;;;;;;;;5014739;28;20045;-77
2023/08/09 08:55:23;;;;;;;4.68;2.45;;;;;;;;;;5010610;28;20053;-77
2023/08/09 08:57:50;;;;;;;5.05;2.40;;;;;;;;;;5014944;28;20042;-77
2023/08/09 09:00:20;;;;;;;4.35;2.17;;;;;;;;;;5017198;28;20046;-76
2023/08/09 09:02:50;;;;;;;3.75;2.08;;;;;;;;;;5008401;28;20045;-77
2023/08/09 09:05:17;;;;;;;5.25;2.35;;;;;;;;;;5023141;28;20045;-76
2023/08/09 09:07:49;;;;;;;4.07;2.00;;;;;;;;;;5007642;28;20049;-77
2023/08/09 09:10:16;;;;;;;5.55;2.33;;;;;;;;;;5007092;28;20045;-75
2023/08/09 09:12:43;;;;;;;5.68;2.40;;;;;;;;;;5022903;28;20133;-78
2023/08/09 09:15:10;;;;;;;4.07;2.33;;;;;;;;;;5020301;28;20042;-77
2023/08/09 09:17:38;;;;;;;3.03;1.75;;;;;;;;;;5010804;28;20050;-77
2023/08/09 09:20:09;;;;;;;5.00;2.25;;;;;;;;;;5016808;28;20444;-77
2023/08/09 09:22:36;;;;;;;4.32;2.17;;;;;;;;;;5016134;28;20057;-76
2023/08/09 09:25:10;;;;;;;4.45;2.17;;;;;;;;;;5027901;28;20136;-75
2023/08/09 09:27:40;;;;;;;2.95;1.73;;;;;;;;;;5016234;28;20054;-76
2023/08/09 09:30:12;;;;;;;4.95;2.65;;;;;;;;;;5007091;28;20046;-77
2023/08/09 09:32:58;;;;;;;3.97;2.17;;;;;;;;;;5019245;28;20496;-76
2023/08/09 09:35:27;;;;;;;4.07;2.22;;;;;;;;;;5012104;28;20073;-77
2023/08/09 09:37:55;;;;;;;5.82;2.25;;;;;;;;;;5014509;28;20233;-77
2023/08/09 09:40:23;;;;;;;5.47;2.35;;;;;;;;;;5030036;28;20068;-76
2023/08/09 09:42:53;;;;;;;4.57;2.30;;;;;;;;;;5016775;28;20046;-77
2023/08/09 09:45:24;;;;;;;4.88;2.33;;;;;;;;;;5010172;28;20432;-77
2023/08/09 09:47:52;;;;;;;5.25;2.50;;;;;;;;;;5016411;28;20046;-77
2023/08/09 09:50:21;;;;;;;4.47;2.60;;;;;;;;;;5013418;28;20061;-76
2023/08/09 09:52:48;;;;;;;4.72;2.40;;;;;;;;;;5005335;28;20061;-77
2023/08/09 09:55:19;;;;;;;5.45;2.45;;;;;;;;;;5012389;28;20304;-77
2023/08/09 09:57:47;;;;;;;4.38;2.75;;;;;;;;;;5016060;28;20048;-77
2023/08/09 10:00:15;;;;;;;4.65;2.40;;;;;;;;;;5011478;28;20046;-75
2023/08/09 10:02:46;;;;;;;5.40;2.63;;;;;;;;;;5005461;28;20116;-75
2023/08/09 10:05:15;;;;;;;5.22;2.67;;;;;;;;;;5005639;28;20073;-76
2023/08/09 10:07:43;;;;;;;4.13;2.25;;;;;;;;;;5010374;28;20132;-77
2023/08/09 10:10:10;;;;;;;4.95;2.95;;;;;;;;;;5015518;28;20041;-77
2023/08/09 10:12:38;;;;;;;6.15;2.97;;;;;;;;;;5016057;28;20053;-77
2023/08/09 10:15:08;;;;;;;6.95;2.97;;;;;;;;;;5019905;28;20046;-77
2023/08/09 10:17:35;;;;;;;5.13;2.47;;;;;;;;;;5014464;28;20049;-77
2023/08/09 10:20:05;;;;;;;5.63;3.25;;;;;;;;;;5017053;28;20306;-77
2023/08/09 10:22:32;;;;;;;5.10;2.58;;;;;;;;;;5016555;28;20069;-77
2023/08/09 10:24:58;;;;;;;4.60;2.70;;;;;;;;;;5017334;28;20500;-77
2023/08/09 10:27:48;;;;;;;5.35;2.45;;;;;;;;;;5012307;28;20045;-77
2023/08/09 10:30:19;;;;;;;4.93;2.58;;;;;;;;;;5009699;28;20058;-77
2023/08/09 10:32:51;;;;;;;5.13;2.80;;;;;;;;;;5014495;28;20049;-77
2023/08/09 10:35:19;;;;;;;3.70;2.20;;;;;;;;;;5013085;28;20483;-77
2023/08/09 10:37:45;;;;;;;4.20;2.70;;;;;;;;;;5009586;28;20451;-77
2023/08/09 10:40:15;;;;;;;3.35;2.03;;;;;;;;;;5022420;28;20046;-77
2023/08/09 10:42:44;;;;;;;4.20;2.22;;;;;;;;;;5014386;28;20132;-76
2023/08/09 10:45:11;;;;;;;4.50;1.80;;;;;;;;;;5017032;28;20049;-76
2023/08/09 10:47:40;;;;;;;3.80;1.90;;;;;;;;;;5023249;28;20132;-77
2023/08/09 10:50:08;;;;;;;4.07;2.03;;;;;;;;;;5015934;28;20208;-77
2023/08/09 10:52:37;;;;;;;3.63;2.05;;;;;;;;;;5015840;28;20093;-77
2023/08/09 10:55:36;;;;;;;5.43;1.92;;;;;;;;;;5019793;28;20073;-77
2023/08/09 10:58:04;;;;;;;4.13;1.80;;;;;;;;;;5008115;28;20065;-77
2023/08/09 11:00:53;;;;;;;4.60;2.40;;;;;;;;;;5008461;28;20053;-77
2023/08/09 11:03:22;;;;;;;5.22;2.30;;;;;;;;;;5011535;28;20497;-76
2023/08/09 11:05:48;;;;;;;4.30;2.30;;;;;;;;;;5013779;28;20054;-77
2023/08/09 11:08:17;;;;;;;4.30;2.30;;;;;;;;;;5018924;28;20053;-77
2023/08/09 11:13:11;;;;;;;4.03;2.10;;;;;;;;;;5057399;22;20445;-79
2023/08/09 11:15:38;;;;;;;4.35;1.90;;;;;;;;;;5052712;28;20056;-78
2023/08/09 11:18:05;;;;;;;3.67;2.13;;;;;;;;;;5050255;28;20510;-78
2023/08/09 11:20:34;;;;;;;3.45;1.80;;;;;;;;;;5054312;28;20045;-78
2023/08/09 11:23:02;;;;;;;3.30;1.52;;;;;;;;;;5036899;28;20061;-79
2023/08/09 11:25:31;;;;;;;4.55;2.20;;;;;;;;;;5031718;28;20053;-79
2023/08/09 11:28:00;;;;;;;5.43;2.20;;;;;;;;;;5042911;28;20051;-79
2023/08/09 11:30:29;;;;;;;4.13;2.00;;;;;;;;;;5051434;28;20466;-76
2023/08/09 11:32:57;;;;;;;3.55;1.90;;;;;;;;;;5041643;28;20073;-78
2023/08/09 11:35:30;;;;;;;4.32;2.10;;;;;;;;;;5035088;28;20125;-77
2023/08/09 11:37:58;;;;;;;3.10;2.17;;;;;;;;;;5043395;28;20049;-79
2023/08/09 11:40:25;;;;;;;4.25;2.08;;;;;;;;;;5038183;28;20046;-79
2023/08/09 11:42:56;;;;;;;4.05;1.83;;;;;;;;;;5038220;28;20115;-79
2023/08/09 11:45:23;;;;;;;4.40;2.00;;;;;;;;;;5037741;28;20076;-79
2023/08/09 11:47:51;;;;;;;5.50;1.92;;;;;;;;;;5033132;28;20045;-79
2023/08/09 11:50:22;;;;;;;4.20;1.75;;;;;;;;;;5036373;28;20045;-80
2023/08/09 11:52:52;;;;;;;4.57;1.83;;;;;;;;;;5027596;28;20500;-77
2023/08/09 11:55:20;;;;;;;3.55;1.77;;;;;;;;;;5028970;28;20115;-80
2023/08/09 11:57:47;;;;;;;4.38;1.85;;;;;;;;;;5032300;28;20053;-79
2023/08/09 12:00:15;;;;;;;3.97;1.67;;;;;;;;;;5030741;28;20431;-79
2023/08/09 12:02:42;;;;;;;3.10;1.65;;;;;;;;;;5032262;28;20050;-79
2023/08/09 12:05:10;;;;;;;3.67;1.83;;;;;;;;;;5031815;28;20041;-79
2023/08/09 12:07:36;;;;;;;4.50;2.20;;;;;;;;;;5024605;28;20076;-79
2023/08/09 12:10:04;;;;;;;3.65;1.80;;;;;;;;;;5047033;28;20037;-78
2023/08/09 12:12:37;;;;;;;5.35;2.00;;;;;;;;;;5039697;28;20049;-80
2023/08/09 12:15:05;;;;;;;3.50;2.20;;;;;;;;;;5038960;28;20108;-78
2023/08/09 12:17:32;;;;;;;3.42;1.90;;;;;;;;;;5041087;28;20049;-79
2023/08/09 12:20:00;;;;;;;4.55;2.22;;;;;;;;;;5030241;28;20053;-82
2023/08/09 12:22:28;;;;;;;4.25;2.38;;;;;;;;;;5028429;28;20113;-81
2023/08/09 12:24:55;;;;;;;4.13;2.22;;;;;;;;;;5027727;28;20045;-78
2023/08/09 12:27:21;;;;;;;4.78;2.00;;;;;;;;;;5038626;28;20063;-80
2023/08/09 12:29:51;;;;;;;4.43;2.00;;;;;;;;;;5042569;28;20068;-79
2023/08/09 12:32:18;;;;;;;4.40;2.30;;;;;;;;;;5036617;28;20050;-79
2023/08/09 12:34:45;;;;;;;5.07;2.05;;;;;;;;;;5042312;28;20098;-79
2023/08/09 12:37:11;;;;;;;3.40;1.83;;;;;;;;;;5045708;28;20488;-78
2023/08/09 12:39:38;;;;;;;3.50;1.90;;;;;;;;;;5055677;28;20499;-80
2023/08/09 12:42:05;;;;;;;4.47;2.22;;;;;;;;;;5048627;28;20464;-78
2023/08/09 12:44:32;;;;;;;5.55;3.00;;;;;;;;;;5035091;28;20049;-78
2023/08/09 12:47:00;;;;;;;3.83;2.28;;;;;;;;;;5038490;28;20136;-79
2023/08/09 12:49:26;;;;;;;4.72;2.03;;;;;;;;;;5048892;28;20049;-80
2023/08/09 12:51:53;;;;;;;3.30;2.10;;;;;;;;;;5029720;28;20055;-79
2023/08/09 12:54:19;;;;;;;5.25;2.38;;;;;;;;;;5033559;28;20060;-78
2023/08/09 12:56:46;;;;;;;4.38;2.17;;;;;;;;;;5031064;28;20138;-78
2023/08/09 12:59:12;;;;;;;3.95;2.05;;;;;;;;;;5036971;28;20500;-78
2023/08/09 13:01:39;;;;;;;3.50;2.00;;;;;;;;;;5035949;28;20045;-80
2023/08/09 13:04:07;;;;;;;3.72;2.08;;;;;;;;;;5034452;28;20055;-79
2023/08/09 13:06:34;;;;;;;3.92;2.20;;;;;;;;;;5030812;28;20049;-79
2023/08/09 13:09:01;;;;;;;4.22;2.17;;;;;;;;;;5035337;28;20044;-78
2023/08/09 13:11:28;;;;;;;4.63;2.90;;;;;;;;;;5031700;28;21187;-79
2023/08/09 13:13:55;;;;;;;3.72;1.95;;;;;;;;;;5025413;28;20045;-80
2023/08/09 13:16:21;;;;;;;3.25;1.92;;;;;;;;;;5026902;28;20054;-78
2023/08/09 13:18:48;;;;;;;3.33;2.00;;;;;;;;;;5029611;28;20427;-78
2023/08/09 13:21:16;;;;;;;4.28;2.13;;;;;;;;;;5041978;28;20041;-79
2023/08/09 13:23:43;;;;;;;3.30;1.75;;;;;;;;;;5052402;28;20156;-79
2023/08/09 13:26:11;;;;;;;4.97;1.98;;;;;;;;;;5034584;28;20424;-78
2023/08/09 13:28:38;;;;;;;6.20;2.15;;;;;;;;;;5035160;28;20049;-78
2023/08/09 13:31:05;;;;;;;4.35;2.35;;;;;;;;;;5034296;28;20058;-78
2023/08/09 13:33:31;;;;;;;4.20;2.22;;;;;;;;;;5047748;28;20136;-78
2023/08/09 13:35:58;;;;;;;4.25;1.90;;;;;;;;;;5055493;28;20125;-79
2023/08/09 13:38:30;;;;;;;4.30;2.00;;;;;;;;;;5056306;28;20507;-78
2023/08/09 13:40:57;;;;;;;4.85;2.05;;;;;;;;;;5045444;28;20042;-77
2023/08/09 13:43:24;;;;;;;4.60;2.10;;;;;;;;;;5049379;28;20124;-77
2023/08/09 13:45:51;;;;;;;3.95;2.30;;;;;;;;;;5056967;28;20073;-79
2023/08/09 13:48:17;;;;;;;4.72;2.00;;;;;;;;;;5054823;28;20059;-77
2023/08/09 13:50:46;;;;;;;5.20;2.40;;;;;;;;;;5030927;28;20049;-78
2023/08/09 13:53:12;;;;;;;3.38;1.98;;;;;;;;;;5035290;28;20466;-77
2023/08/09 13:55:41;;;;;;;4.15;2.47;;;;;;;;;;5046198;28;20045;-78
2023/08/09 13:58:08;;;;;;;4.28;2.40;;;;;;;;;;5045740;28;20488;-78
2023/08/09 14:00:35;;;;;;;3.58;2.20;;;;;;;;;;5034626;28;20046;-78
2023/08/09 14:03:02;;;;;;;3.72;2.10;;;;;;;;;;5043868;28;20434;-78
2023/08/09 14:05:29;;;;;;;4.78;2.40;;;;;;;;;;5055144;28;20053;-78
2023/08/09 14:07:56;;;;;;;3.30;1.98;;;;;;;;;;5055121;28;20084;-77
2023/08/09 14:10:22;;;;;;;3.67;2.15;;;;;;;;;;5055335;28;20055;-79
2023/08/09 14:12:50;;;;;;;3.90;2.10;;;;;;;;;;5054650;28;20049;-78
2023/08/09 14:15:17;;;;;;;4.30;2.10;;;;;;;;;;5030932;28;20140;-79
2023/08/09 14:17:44;;;;;;;4.13;1.90;;;;;;;;;;5035174;28;20045;-79
2023/08/09 14:20:16;;;;;;;3.53;1.90;;;;;;;;;;5036312;28;20053;-79
2023/08/09 14:22:43;;;;;;;4.72;2.10;;;;;;;;;;5035799;28;20045;-77
2023/08/09 14:25:10;;;;;;;4.82;2.28;;;;;;;;;;5034283;28;20049;-79
2023/08/09 14:27:37;;;;;;;3.88;2.00;;;;;;;;;;5033518;28;20511;-78
2023/08/09 14:30:06;;;;;;;5.30;2.17;;;;;;;;;;5033047;28;20412;-76
2023/08/09 14:32:33;;;;;;;5.43;2.10;;;;;;;;;;5031508;28;20053;-77
2023/08/09 14:35:00;;;;;;;3.65;1.85;;;;;;;;;;5033703;28;20109;-78
2023/08/09 14:37:27;;;;;;;3.67;1.83;;;;;;;;;;5044463;28;20045;-78
2023/08/09 14:39:53;;;;;;;3.75;2.13;;;;;;;;;;5054379;28;20148;-78
2023/08/09 14:42:20;;;;;;;5.75;2.55;;;;;;;;;;5054213;28;20141;-78
2023/08/09 14:44:47;;;;;;;4.25;2.60;;;;;;;;;;5054130;28;20051;-78
2023/08/09 14:47:15;;;;;;;4.55;2.00;;;;;;;;;;5053880;28;20522;-79